createdAt,value
2023-02-01T00:01:35.577Z,1.88
2023-02-01T00:04:05.755Z,1.87
2023-02-01T00:06:34.249Z,1.85
2023-02-01T00:09:03.282Z,1.82
2023-02-01T00:11:32.280Z,1.82
2023-02-01T00:14:00.823Z,1.80
2023-02-01T00:16:31.077Z,1.75
2023-02-01T00:19:02.412Z,1.61
2023-02-01T00:21:32.752Z,1.68
2023-02-01T00:24:01.770Z,1.67
2023-02-01T00:26:34.080Z,1.65
2023-02-01T00:29:03.467Z,1.61
2023-02-01T00:31:32.354Z,1.57
2023-02-01T00:34:01.245Z,1.56
2023-02-01T00:36:30.464Z,1.50
2023-02-01T00:39:00.390Z,1.45
2023-02-01T00:41:29.145Z,1.42
2023-02-01T00:43:57.688Z,1.45
2023-02-01T00:46:26.618Z,1.36
2023-02-01T00:48:55.562Z,1.28
2023-02-01T00:51:27.261Z,1.24
2023-02-01T00:53:59.417Z,1.18
2023-02-01T00:56:29.577Z,1.12
2023-02-01T00:58:58.293Z,1.09
2023-02-01T01:01:28.666Z,1.11
2023-02-01T01:03:58.942Z,1.04
2023-02-01T01:06:29.869Z,0.98
2023-02-01T01:09:01.800Z,1.03
2023-02-01T01:11:33.096Z,1.10
2023-02-01T01:14:02.555Z,1.08
2023-02-01T01:16:33.829Z,0.98
2023-02-01T01:19:03.242Z,0.90
2023-02-01T01:21:32.602Z,0.60
2023-02-01T01:24:02.720Z,0.86
2023-02-01T01:26:32.526Z,0.80
2023-02-01T01:29:02.046Z,0.66
2023-02-01T01:31:31.136Z,0.77
2023-02-01T01:34:01.518Z,0.54
2023-02-01T01:36:32.119Z,0.54
2023-02-01T01:39:00.854Z,0.69
2023-02-01T01:41:33.735Z,0.67
2023-02-01T01:44:43.406Z,0.61
2023-02-01T01:47:12.420Z,0.52
2023-02-01T01:49:41.090Z,0.54
2023-02-01T01:52:09.985Z,0.50
2023-02-01T01:54:43.118Z,0.43
2023-02-01T01:57:16.677Z,0.38
2023-02-01T01:59:51.308Z,0.37
2023-02-01T02:02:20.499Z,0.28
2023-02-01T02:04:49.869Z,0.31
2023-02-01T02:07:23.750Z,0.27
2023-02-01T02:10:00.553Z,0.26
2023-02-01T02:12:31.367Z,0.10
2023-02-01T02:15:00.233Z,0.19
2023-02-01T02:17:37.382Z,0.13
2023-02-01T02:20:38.665Z,0.07
2023-02-01T02:23:39.840Z,0.02
2023-02-01T02:26:27.701Z,-0.00
2023-02-01T02:29:26.768Z,0.02
2023-02-01T02:32:19.112Z,-0.01
2023-02-01T02:34:54.808Z,-0.11
2023-02-01T02:37:31.535Z,-0.04
2023-02-01T02:40:10.167Z,-0.10
2023-02-01T02:43:03.324Z,-0.14
2023-02-01T02:45:58.441Z,-0.21
2023-02-01T02:48:33.134Z,-0.16
2023-02-01T02:51:25.039Z,-0.18
2023-02-01T02:54:30.754Z,-0.17
2023-02-01T02:57:20.951Z,-0.24
2023-02-01T03:00:08.150Z,-0.21
2023-02-01T03:02:55.155Z,-0.30
2023-02-01T03:05:23.810Z,-0.33
2023-02-01T03:08:04.262Z,-0.31
2023-02-01T03:10:44.292Z,-0.43
2023-02-01T03:13:15.989Z,-0.42
2023-02-01T03:15:51.820Z,-0.50
2023-02-01T03:18:27.730Z,-0.44
2023-02-01T03:20:59.288Z,-0.46
2023-02-01T03:23:33.712Z,-0.41
2023-02-01T03:26:04.200Z,-0.41
2023-02-01T03:28:36.385Z,-0.44
2023-02-01T03:31:05.633Z,-0.45
2023-02-01T03:33:34.857Z,-0.52
2023-02-01T03:36:13.532Z,-0.57
2023-02-01T03:38:50.907Z,-0.64
2023-02-01T03:41:28.735Z,-0.69
2023-02-01T03:44:02.294Z,-0.67
2023-02-01T03:46:35.824Z,-0.65
2023-02-01T03:49:09.405Z,-0.69
2023-02-01T03:51:42.617Z,-0.72
2023-02-01T03:54:17.560Z,-0.68
2023-02-01T03:56:48.530Z,-0.62
2023-02-01T03:59:17.372Z,-0.57
2023-02-01T04:01:45.796Z,-0.56
2023-02-01T04:04:21.562Z,-0.56
2023-02-01T04:06:54.340Z,-0.52
2023-02-01T04:09:25.440Z,-0.44
2023-02-01T04:11:54.084Z,-0.39
2023-02-01T04:14:23.122Z,-0.35
2023-02-01T04:16:51.809Z,-0.45
2023-02-01T04:19:20.929Z,-0.57
2023-02-01T04:21:49.413Z,-0.55
2023-02-01T04:24:17.960Z,-0.51
2023-02-01T04:26:48.038Z,-0.56
2023-02-01T04:29:16.651Z,-0.65
2023-02-01T04:31:45.301Z,-0.69
2023-02-01T04:34:13.810Z,-0.70
2023-02-01T04:36:42.354Z,-0.75
2023-02-01T04:39:11.513Z,-0.77
2023-02-01T04:41:40.096Z,-0.83
2023-02-01T04:44:16.302Z,-0.91
2023-02-01T04:46:45.162Z,-0.91
2023-02-01T04:49:14.857Z,-0.91
2023-02-01T04:51:43.870Z,-0.93
2023-02-01T04:54:13.631Z,-0.95
2023-02-01T04:56:42.651Z,-1.04
2023-02-01T04:59:14.380Z,-0.93
2023-02-01T05:01:49.833Z,-0.98
2023-02-01T05:04:24.313Z,-1.07
2023-02-01T05:06:53.010Z,-1.01
2023-02-01T05:09:22.901Z,-1.03
2023-02-01T05:12:08.866Z,-1.04
2023-02-01T05:14:38.842Z,-1.01
2023-02-01T05:17:07.331Z,-0.95
2023-02-01T05:19:35.839Z,-0.90
2023-02-01T05:22:04.345Z,-0.87
2023-02-01T05:24:32.879Z,-0.93
2023-02-01T05:27:01.642Z,-0.96
2023-02-01T05:29:30.390Z,-0.98
2023-02-01T05:32:08.422Z,-1.07
2023-02-01T05:34:43.895Z,-1.13
2023-02-01T05:37:12.385Z,-1.13
2023-02-01T05:39:41.070Z,-1.12
2023-02-01T05:42:09.564Z,-1.09
2023-02-01T05:44:38.038Z,-1.14
2023-02-01T05:47:08.001Z,-1.14
2023-02-01T05:49:36.786Z,-0.60
2023-02-01T05:52:05.523Z,-0.90
2023-02-01T05:54:34.235Z,-1.02
2023-02-01T05:57:02.811Z,-1.09
2023-02-01T05:59:31.601Z,-1.09
2023-02-01T06:02:00.224Z,-1.10
2023-02-01T06:04:30.238Z,-1.08
2023-02-01T06:06:58.803Z,-1.19
2023-02-01T06:09:27.403Z,-1.26
2023-02-01T06:11:56.033Z,-1.22
2023-02-01T06:14:24.901Z,-1.28
2023-02-01T06:16:53.432Z,-1.25
2023-02-01T06:19:22.762Z,-1.22
2023-02-01T06:21:52.647Z,-1.24
2023-02-01T06:24:21.766Z,-1.31
2023-02-01T06:26:50.407Z,-1.40
2023-02-01T06:29:19.156Z,-1.43
2023-02-01T06:31:48.710Z,-1.43
2023-02-01T06:34:17.355Z,-1.36
2023-02-01T06:36:45.831Z,-1.33
2023-02-01T06:39:17.245Z,-1.30
2023-02-01T06:41:48.724Z,-1.30
2023-02-01T06:44:17.791Z,-1.35
2023-02-01T06:46:46.268Z,-1.31
2023-02-01T06:49:14.932Z,-1.37
2023-02-01T06:51:43.545Z,-1.45
2023-02-01T06:54:12.051Z,-1.48
2023-02-01T06:56:41.925Z,-1.47
2023-02-01T06:59:10.937Z,-1.43
2023-02-01T07:01:39.450Z,-1.33
2023-02-01T07:04:08.214Z,-1.20
2023-02-01T07:06:36.612Z,-1.04
2023-02-01T07:09:05.258Z,-0.94
2023-02-01T07:11:33.823Z,-0.90
2023-02-01T07:14:03.742Z,-0.85
2023-02-01T07:16:32.419Z,-0.87
2023-02-01T07:19:01.221Z,-0.92
2023-02-01T07:21:29.850Z,-1.05
2023-02-01T07:23:58.464Z,-1.16
2023-02-01T07:26:26.975Z,-1.13
2023-02-01T07:28:55.649Z,-1.07
2023-02-01T07:31:27.747Z,-0.99
2023-02-01T07:33:58.742Z,-1.05
2023-02-01T07:36:27.431Z,-1.03
2023-02-01T07:38:56.886Z,-1.03
2023-02-01T07:41:25.775Z,-0.92
2023-02-01T07:43:55.257Z,-0.73
2023-02-01T07:46:25.294Z,-0.59
2023-02-01T07:48:53.825Z,-0.42
2023-02-01T07:51:22.393Z,-0.29
2023-02-01T07:53:50.936Z,-0.23
2023-02-01T07:56:21.783Z,-0.14
2023-02-01T07:58:50.824Z,0.16
2023-02-01T08:01:22.717Z,0.33
2023-02-01T08:03:54.509Z,0.45
2023-02-01T08:06:24.322Z,0.58
2023-02-01T08:08:55.222Z,0.65
2023-02-01T08:11:25.550Z,0.87
2023-02-01T08:13:54.637Z,1.05
2023-02-01T08:16:24.613Z,1.16
2023-02-01T08:18:55.316Z,1.26
2023-02-01T08:21:26.359Z,1.43
2023-02-01T08:23:57.370Z,1.37
2023-02-01T08:26:27.971Z,1.64
2023-02-01T08:28:59.161Z,2.10
2023-02-01T08:31:29.446Z,2.50
2023-02-01T08:34:01.556Z,2.91
2023-02-01T08:36:31.709Z,3.17
2023-02-01T08:39:00.677Z,3.58
2023-02-01T08:41:31.993Z,3.66
2023-02-01T08:44:00.904Z,4.10
2023-02-01T08:46:29.447Z,4.24
2023-02-01T08:48:59.839Z,4.35
2023-02-01T08:51:28.412Z,4.51
2023-02-01T08:53:56.885Z,4.73
2023-02-01T08:56:25.443Z,4.90
2023-02-01T08:58:54.179Z,5.13
2023-02-01T09:01:22.650Z,5.35
2023-02-01T09:03:51.310Z,5.56
2023-02-01T09:06:21.461Z,5.83
2023-02-01T09:08:49.937Z,6.06
2023-02-01T09:11:21.567Z,6.08
2023-02-01T09:13:50.902Z,6.29
2023-02-01T09:16:21.508Z,6.65
2023-02-01T09:19:01.631Z,6.85
2023-02-01T09:21:40.263Z,6.94
2023-02-01T09:24:09.898Z,7.04
2023-02-01T09:26:38.932Z,7.15
2023-02-01T09:29:12.383Z,7.17
2023-02-01T09:31:49.851Z,7.21
2023-02-01T09:34:22.780Z,7.20
2023-02-01T09:36:52.736Z,7.31
2023-02-01T09:39:21.964Z,7.36
2023-02-01T09:41:59.647Z,7.41
2023-02-01T09:44:46.951Z,7.51
2023-02-01T09:47:18.030Z,7.61
2023-02-01T09:49:53.962Z,7.73
2023-02-01T09:52:30.806Z,7.57
2023-02-01T09:55:03.968Z,7.83
2023-02-01T09:57:44.358Z,7.98
2023-02-01T10:00:23.183Z,8.05
2023-02-01T10:02:52.689Z,8.20
2023-02-01T10:05:30.263Z,8.35
2023-02-01T10:08:06.908Z,8.42
2023-02-01T10:10:41.128Z,8.05
2023-02-01T10:13:26.436Z,8.63
2023-02-01T10:16:20.296Z,8.69
2023-02-01T10:19:04.387Z,8.74
2023-02-01T10:21:49.978Z,8.81
2023-02-01T10:24:37.306Z,8.93
2023-02-01T10:27:15.359Z,9.02
2023-02-01T10:29:47.050Z,9.12
2023-02-01T10:32:17.840Z,9.19
2023-02-01T10:34:52.270Z,9.30
2023-02-01T10:37:27.833Z,9.34
2023-02-01T10:40:00.012Z,9.42
2023-02-01T10:42:30.989Z,9.52
2023-02-01T10:45:02.712Z,9.64
2023-02-01T10:47:31.291Z,9.72
2023-02-01T10:50:16.937Z,9.75
2023-02-01T10:52:50.663Z,9.91
2023-02-01T10:55:35.012Z,9.99
2023-02-01T10:58:05.990Z,10.09
2023-02-01T11:00:47.834Z,10.17
2023-02-01T11:03:38.716Z,10.27
2023-02-01T11:06:20.196Z,10.40
2023-02-01T11:08:51.265Z,10.47
2023-02-01T11:11:22.341Z,10.50
2023-02-01T11:13:57.099Z,10.71
2023-02-01T11:16:33.430Z,10.88
2023-02-01T11:19:02.390Z,11.04
2023-02-01T11:21:31.191Z,11.13
2023-02-01T11:24:04.435Z,11.25
2023-02-01T11:26:35.097Z,11.36
2023-02-01T11:29:07.618Z,11.43
2023-02-01T11:31:37.427Z,11.54
2023-02-01T11:34:11.541Z,11.46
2023-02-01T11:36:42.528Z,11.71
2023-02-01T11:39:21.987Z,11.78
2023-02-01T11:42:06.092Z,11.94
2023-02-01T11:44:37.732Z,11.99
2023-02-01T11:47:27.751Z,11.89
2023-02-01T11:49:58.248Z,12.12
2023-02-01T11:52:46.548Z,12.15
2023-02-01T11:55:55.089Z,12.19
2023-02-01T11:59:10.658Z,12.20
2023-02-01T12:02:06.244Z,12.25
2023-02-01T12:05:04.167Z,12.28
2023-02-01T12:07:50.923Z,12.27
2023-02-01T12:10:31.307Z,12.31
2023-02-01T12:13:21.265Z,12.38
2023-02-01T12:16:04.769Z,12.41
2023-02-01T12:18:44.291Z,12.43
2023-02-01T12:21:30.891Z,12.40
2023-02-01T12:24:19.253Z,12.40
2023-02-01T12:26:57.136Z,12.44
2023-02-01T12:29:59.369Z,12.45
2023-02-01T12:32:53.859Z,12.49
2023-02-01T12:35:41.092Z,12.55
2023-02-01T12:38:32.154Z,12.56
2023-02-01T12:41:16.000Z,12.54
2023-02-01T12:43:49.340Z,12.52
2023-02-01T12:46:23.814Z,12.36
2023-02-01T12:49:00.098Z,12.52
2023-02-01T12:51:31.955Z,12.50
2023-02-01T12:54:06.918Z,12.44
2023-02-01T12:56:39.613Z,12.45
2023-02-01T12:59:18.400Z,12.51
2023-02-01T13:01:53.551Z,12.55
2023-02-01T13:04:29.525Z,12.55
2023-02-01T13:07:06.704Z,12.59
2023-02-01T13:09:41.974Z,12.60
2023-02-01T13:12:16.341Z,12.65
2023-02-01T13:14:51.586Z,12.72
2023-02-01T13:17:25.812Z,12.74
2023-02-01T13:19:59.867Z,12.81
2023-02-01T13:22:34.220Z,12.84
2023-02-01T13:25:07.332Z,12.88
2023-02-01T13:27:36.222Z,12.92
2023-02-01T13:30:11.015Z,12.91
2023-02-01T13:33:53.108Z,12.93
2023-02-01T13:36:25.294Z,12.81
2023-02-01T13:39:21.645Z,12.80
2023-02-01T13:41:57.253Z,12.81
2023-02-01T13:44:33.236Z,12.84
2023-02-01T13:47:04.711Z,12.89
2023-02-01T13:49:39.714Z,12.88
2023-02-01T13:52:27.392Z,12.85
2023-02-01T13:55:18.030Z,12.84
2023-02-01T13:57:47.099Z,12.85
2023-02-01T14:00:32.247Z,12.85
2023-02-01T14:03:16.967Z,12.84
2023-02-01T14:06:38.377Z,12.87
2023-02-01T14:09:34.623Z,12.86
2023-02-01T14:12:36.055Z,12.89
2023-02-01T14:15:25.223Z,12.78
2023-02-01T14:17:54.379Z,12.95
2023-02-01T14:20:52.054Z,12.94
2023-02-01T14:23:24.737Z,12.92
2023-02-01T14:26:26.531Z,12.88
2023-02-01T14:29:03.744Z,12.95
2023-02-01T14:31:44.508Z,12.89
2023-02-01T14:34:24.347Z,12.93
2023-02-01T14:36:58.389Z,12.92
2023-02-01T14:39:34.859Z,12.95
2023-02-01T14:42:13.908Z,12.93
2023-02-01T14:44:58.938Z,12.89
2023-02-01T14:47:32.018Z,12.88
2023-02-01T14:50:17.801Z,12.88
2023-02-01T14:52:49.649Z,12.86
2023-02-01T14:55:23.382Z,12.88
2023-02-01T14:57:57.593Z,12.87
2023-02-01T15:00:28.400Z,12.80
2023-02-01T15:03:13.908Z,12.84
2023-02-01T15:05:42.488Z,12.77
2023-02-01T15:08:20.262Z,12.75
2023-02-01T15:10:52.735Z,12.77
2023-02-01T15:13:24.543Z,12.63
2023-02-01T15:16:03.785Z,12.75
2023-02-01T15:18:32.694Z,12.65
2023-02-01T15:21:09.512Z,12.46
2023-02-01T15:23:52.206Z,12.55
2023-02-01T15:26:29.232Z,12.55
2023-02-01T15:29:00.939Z,12.53
2023-02-01T15:31:36.088Z,12.48
2023-02-01T15:34:05.372Z,12.47
2023-02-01T15:36:34.904Z,12.43
2023-02-01T15:39:26.899Z,12.42
2023-02-01T15:41:58.353Z,12.17
2023-02-01T15:44:36.057Z,12.34
2023-02-01T15:47:11.467Z,12.26
2023-02-01T15:49:42.848Z,12.25
2023-02-01T15:52:23.885Z,12.20
2023-02-01T15:54:55.085Z,12.10
2023-02-01T15:57:31.533Z,11.94
2023-02-01T16:00:05.658Z,12.07
2023-02-01T16:02:45.917Z,12.00
2023-02-01T16:05:33.416Z,11.97
2023-02-01T16:08:06.189Z,11.91
2023-02-01T16:10:42.118Z,11.85
2023-02-01T16:13:11.088Z,11.82
2023-02-01T16:15:41.671Z,11.79
2023-02-01T16:18:14.088Z,11.70
2023-02-01T16:20:44.916Z,11.59
2023-02-01T16:23:13.860Z,11.52
2023-02-01T16:25:42.799Z,11.42
2023-02-01T16:28:11.489Z,11.28
2023-02-01T16:31:05.844Z,11.30
2023-02-01T16:33:44.909Z,11.19
2023-02-01T16:36:14.770Z,11.13
2023-02-01T16:38:43.260Z,11.07
2023-02-01T16:41:15.859Z,11.02
2023-02-01T16:43:45.862Z,10.97
2023-02-01T16:46:21.605Z,10.85
2023-02-01T16:48:54.109Z,10.78
2023-02-01T16:51:22.825Z,10.70
2023-02-01T16:53:54.512Z,10.62
2023-02-01T16:56:31.096Z,10.52
2023-02-01T16:58:59.913Z,10.45
2023-02-01T17:01:40.428Z,10.36
2023-02-01T17:04:09.318Z,10.29
2023-02-01T17:06:39.029Z,10.24
2023-02-01T17:09:08.360Z,10.13
2023-02-01T17:11:38.848Z,10.05
2023-02-01T17:14:17.748Z,9.98
2023-02-01T17:16:49.720Z,9.91
2023-02-01T17:19:21.252Z,9.84
2023-02-01T17:21:52.886Z,9.78
2023-02-01T17:24:25.937Z,9.71
2023-02-01T17:26:55.755Z,9.59
2023-02-01T17:29:25.069Z,9.53
2023-02-01T17:31:58.655Z,9.41
2023-02-01T17:34:27.838Z,9.28
2023-02-01T17:36:56.918Z,9.23
2023-02-01T17:39:42.742Z,9.15
2023-02-01T17:42:13.639Z,9.08
2023-02-01T17:44:42.355Z,9.05
2023-02-01T17:47:12.329Z,9.03
2023-02-01T17:49:41.110Z,8.97
2023-02-01T17:52:16.255Z,8.94
2023-02-01T17:54:45.132Z,8.91
2023-02-01T17:57:14.576Z,8.76
2023-02-01T17:59:43.251Z,8.91
2023-02-01T18:02:20.614Z,8.90
2023-02-01T18:04:50.357Z,8.87
2023-02-01T18:07:19.707Z,8.84
2023-02-01T18:09:48.473Z,8.79
2023-02-01T18:12:25.863Z,8.79
2023-02-01T18:14:58.713Z,8.73
2023-02-01T18:17:29.002Z,8.68
2023-02-01T18:19:59.963Z,8.66
2023-02-01T18:22:34.839Z,8.67
2023-02-01T18:25:14.346Z,8.66
2023-02-01T18:27:42.988Z,8.64
2023-02-01T18:30:13.052Z,8.52
2023-02-01T18:32:43.827Z,8.38
2023-02-01T18:35:21.750Z,8.50
2023-02-01T18:37:51.539Z,8.45
2023-02-01T18:40:22.685Z,8.42
2023-02-01T18:42:51.583Z,8.38
2023-02-01T18:45:31.875Z,8.34
2023-02-01T18:48:02.231Z,8.29
2023-02-01T18:50:33.895Z,7.99
2023-02-01T18:53:04.446Z,8.21
2023-02-01T18:55:33.730Z,8.21
2023-02-01T18:58:03.016Z,8.22
2023-02-01T19:00:31.730Z,8.20
2023-02-01T19:03:04.842Z,8.19
2023-02-01T19:05:33.577Z,8.15
2023-02-01T19:08:04.140Z,8.16
2023-02-01T19:10:39.927Z,8.14
2023-02-01T19:13:13.539Z,8.12
2023-02-01T19:15:42.708Z,8.07
2023-02-01T19:18:12.745Z,8.04
2023-02-01T19:20:48.526Z,8.00
2023-02-01T19:23:22.236Z,7.93
2023-02-01T19:25:56.644Z,7.90
2023-02-01T19:28:28.085Z,7.87
2023-02-01T19:31:05.983Z,7.91
2023-02-01T19:33:40.350Z,7.88
2023-02-01T19:36:14.521Z,7.83
2023-02-01T19:38:47.882Z,7.83
2023-02-01T19:41:17.114Z,7.78
2023-02-01T19:43:46.000Z,7.75
2023-02-01T19:46:14.689Z,7.71
2023-02-01T19:48:44.683Z,7.70
2023-02-01T19:51:13.232Z,7.69
2023-02-01T19:53:41.642Z,7.58
2023-02-01T19:56:10.278Z,7.48
2023-02-01T19:58:38.719Z,7.67
2023-02-01T20:01:07.363Z,7.68
2023-02-01T20:03:35.911Z,7.69
2023-02-01T20:06:07.561Z,7.64
2023-02-01T20:08:36.110Z,7.56
2023-02-01T20:11:07.668Z,7.49
2023-02-01T20:13:38.788Z,7.39
2023-02-01T20:16:07.861Z,7.38
2023-02-01T20:18:37.592Z,7.34
2023-02-01T20:21:07.722Z,7.10
2023-02-01T20:23:36.847Z,7.40
2023-02-01T20:26:08.157Z,7.41
2023-02-01T20:28:37.271Z,7.35
2023-02-01T20:31:07.309Z,7.24
2023-02-01T20:33:36.030Z,7.13
2023-02-01T20:36:05.558Z,7.12
2023-02-01T20:38:35.797Z,7.08
2023-02-01T20:41:05.420Z,7.07
2023-02-01T20:43:34.551Z,7.01
2023-02-01T20:46:03.493Z,6.92
2023-02-01T20:48:33.083Z,6.86
2023-02-01T20:51:01.618Z,6.86
2023-02-01T20:53:30.621Z,6.85
2023-02-01T20:56:00.792Z,6.82
2023-02-01T20:58:29.509Z,6.85
2023-02-01T21:00:58.518Z,6.87
2023-02-01T21:03:27.394Z,6.82
2023-02-01T21:05:57.981Z,6.77
2023-02-01T21:08:27.610Z,6.67
2023-02-01T21:11:03.534Z,6.67
2023-02-01T21:13:36.356Z,6.59
2023-02-01T21:16:09.850Z,6.55
2023-02-01T21:18:38.714Z,6.50
2023-02-01T21:21:07.915Z,6.46
2023-02-01T21:23:45.179Z,6.42
2023-02-01T21:26:15.967Z,6.44
2023-02-01T21:28:44.753Z,6.47
2023-02-01T21:31:14.205Z,6.49
2023-02-01T21:33:42.764Z,6.48
2023-02-01T21:36:19.186Z,6.49
2023-02-01T21:38:50.155Z,6.47
2023-02-01T21:41:38.499Z,6.41
2023-02-01T21:44:07.249Z,6.39
2023-02-01T21:46:35.873Z,6.36
2023-02-01T21:49:07.212Z,6.33
2023-02-01T21:51:38.221Z,6.26
2023-02-01T21:54:07.319Z,6.26
2023-02-01T21:56:37.826Z,6.27
2023-02-01T21:59:06.591Z,6.25
2023-02-01T22:01:35.456Z,6.23
2023-02-01T22:04:04.019Z,6.17
2023-02-01T22:06:35.025Z,6.10
2023-02-01T22:09:04.145Z,6.05
2023-02-01T22:11:33.941Z,6.00
2023-02-01T22:14:04.018Z,5.96
2023-02-01T22:16:32.669Z,5.90
2023-02-01T22:19:01.184Z,5.87
2023-02-01T22:21:29.736Z,5.76
2023-02-01T22:24:00.332Z,5.45
2023-02-01T22:26:29.484Z,5.59
2023-02-01T22:28:58.038Z,5.50
2023-02-01T22:31:28.205Z,5.45
2023-02-01T22:33:57.072Z,5.49
2023-02-01T22:36:26.104Z,5.55
2023-02-01T22:38:54.739Z,5.52
2023-02-01T22:41:23.300Z,5.51
2023-02-01T22:43:52.122Z,5.57
2023-02-01T22:46:23.015Z,5.60
2023-02-01T22:48:53.470Z,5.63
2023-02-01T22:51:24.354Z,5.59
2023-02-01T22:53:57.177Z,5.52
2023-02-01T22:56:27.260Z,5.48
2023-02-01T22:58:57.555Z,5.32
2023-02-01T23:01:36.524Z,5.33
2023-02-01T23:04:08.531Z,5.26
2023-02-01T23:06:37.375Z,5.26
2023-02-01T23:09:11.914Z,5.23
2023-02-01T23:11:40.900Z,5.16
2023-02-01T23:14:11.005Z,5.19
2023-02-01T23:16:41.261Z,5.07
2023-02-01T23:19:11.487Z,5.23
2023-02-01T23:21:40.043Z,5.25
2023-02-01T23:24:10.956Z,5.26
2023-02-01T23:26:40.438Z,5.70
2023-02-01T23:29:08.950Z,5.45
2023-02-01T23:31:37.626Z,5.33
2023-02-01T23:34:06.491Z,5.25
2023-02-01T23:36:36.535Z,5.18
2023-02-01T23:39:05.192Z,5.10
2023-02-01T23:41:33.843Z,5.05
2023-02-01T23:44:02.376Z,5.01
2023-02-01T23:46:34.236Z,4.94
2023-02-01T23:49:05.273Z,4.92
2023-02-01T23:51:37.289Z,4.89
2023-02-01T23:54:06.181Z,4.72
2023-02-01T23:56:36.921Z,4.78
2023-02-01T23:59:07.577Z,4.66
